Time;durP1;ratioP1;P1;durP2;ratioP2;P2;SDS_P1;SDS_P2;PMS_P1;PMS_P2;Temp;Humidity;BMP_temperature;BMP_pressure;BME280_temperature;BME280_humidity;BME280_pressure;Samples;Min_cycle;Max_cycle;Signal;HPM_P1;HPM_P2
2022/07/03 00:01:33;;;;;;;0.40;0.40;;;19.90;90.40;;;;;;4444513;32;20167;-71
2022/07/03 00:03:59;;;;;;;0.47;0.47;;;19.90;90.50;;;;;;4439541;32;20129;-71
2022/07/03 00:06:26;;;;;;;1.73;0.50;;;19.90;90.80;;;;;;4446321;32;20076;-71
2022/07/03 00:08:52;;;;;;;0.40;0.40;;;19.80;91.30;;;;;;4442433;32;20309;-71
2022/07/03 00:11:17;;;;;;;3.50;0.82;;;19.70;91.90;;;;;;4443488;32;20081;-71
2022/07/03 00:13:43;;;;;;;0.40;0.40;;;19.70;91.70;;;;;;4438186;32;20085;-70
2022/07/03 00:16:08;;;;;;;0.80;0.43;;;19.70;91.50;;;;;;4440695;32;20068;-71
2022/07/03 00:18:34;;;;;;;0.73;0.70;;;19.70;91.30;;;;;;4442377;32;20076;-71
2022/07/03 00:21:01;;;;;;;0.47;0.47;;;19.60;91.70;;;;;;4433667;32;20522;-71
2022/07/03 00:23:33;;;;;;;0.47;0.47;;;19.60;91.50;;;;;;4427394;32;20077;-71
2022/07/03 00:26:01;;;;;;;0.30;0.30;;;19.60;92.20;;;;;;4437015;32;20123;-71
2022/07/03 00:28:28;;;;;;;0.32;0.32;;;19.60;92.30;;;;;;4438845;32;20441;-71
2022/07/03 00:30:56;;;;;;;0.45;0.45;;;19.60;92.10;;;;;;4441335;32;20422;-71
2022/07/03 00:33:23;;;;;;;0.47;0.47;;;19.60;92.30;;;;;;4443165;32;20127;-71
2022/07/03 00:35:53;;;;;;;0.43;0.43;;;19.50;92.50;;;;;;4441884;32;20088;-71
2022/07/03 00:38:21;;;;;;;0.50;0.50;;;19.40;92.70;;;;;;4443136;32;20081;-71
2022/07/03 00:40:46;;;;;;;0.40;0.40;;;19.40;92.50;;;;;;4439577;32;20073;-70
2022/07/03 00:43:15;;;;;;;0.32;0.32;;;19.40;92.70;;;;;;4444057;32;20113;-71
2022/07/03 00:45:46;;;;;;;0.40;0.40;;;19.40;93.00;;;;;;4443745;32;20070;-71
2022/07/03 00:48:15;;;;;;;0.30;0.30;;;19.30;93.40;;;;;;4438077;32;20127;-71
2022/07/03 00:50:48;;;;;;;0.68;0.68;;;19.30;93.50;;;;;;4433990;32;20073;-71
2022/07/03 00:53:18;;;;;;;0.30;0.30;;;19.30;93.40;;;;;;4416345;32;20069;-71
2022/07/03 00:55:47;;;;;;;0.43;0.43;;;19.10;93.70;;;;;;4429379;32;20136;-71
2022/07/03 00:58:16;;;;;;;0.45;0.45;;;19.10;93.50;;;;;;4448236;32;20073;-71
2022/07/03 01:00:44;;;;;;;0.43;0.43;;;19.10;93.80;;;;;;4440547;32;20065;-71
2022/07/03 01:03:16;;;;;;;0.73;0.68;;;19.00;94.30;;;;;;4443151;32;20502;-71
2022/07/03 01:05:44;;;;;;;0.40;0.40;;;18.90;93.90;;;;;;4440806;32;20072;-71
2022/07/03 01:08:34;;;;;;;0.30;0.30;;;18.90;93.80;;;;;;4436948;32;20082;-71
2022/07/03 01:11:14;;;;;;;0.40;0.40;;;18.90;94.30;;;;;;4434256;32;20128;-71
2022/07/03 01:13:55;;;;;;;0.47;0.43;;;18.90;94.30;;;;;;4434511;32;20489;-71
2022/07/03 01:16:44;;;;;;;1.12;0.45;;;18.80;94.20;;;;;;4434402;32;20520;-71
2022/07/03 01:19:41;;;;;;;0.60;0.60;;;18.80;94.90;;;;;;4429910;32;20706;-71
2022/07/03 01:22:33;;;;;;;0.60;0.60;;;18.80;94.50;;;;;;4418677;32;20835;-71
2022/07/03 01:25:24;;;;;;;0.57;0.57;;;18.90;95.10;;;;;;4429381;32;20520;-71
2022/07/03 01:27:58;;;;;;;0.35;0.35;;;18.70;95.20;;;;;;4439773;32;20077;-71
2022/07/03 01:30:26;;;;;;;0.50;0.50;;;18.60;94.80;;;;;;4442383;32;20123;-71
2022/07/03 01:33:04;;;;;;;0.52;0.52;;;18.60;95.50;;;;;;4436216;32;91874;-71
2022/07/03 01:35:35;;;;;;;1.45;0.88;;;18.60;95.40;;;;;;4438916;32;20082;-71
2022/07/03 01:38:04;;;;;;;0.50;0.50;;;18.60;95.00;;;;;;4437441;32;20131;-71
2022/07/03 01:40:32;;;;;;;0.40;0.40;;;18.60;95.20;;;;;;4440953;32;20070;-70
2022/07/03 01:42:58;;;;;;;0.60;0.60;;;18.60;95.20;;;;;;4441491;32;20093;-71
2022/07/03 01:45:28;;;;;;;0.30;0.30;;;18.50;95.00;;;;;;4437333;32;20450;-71
2022/07/03 01:47:58;;;;;;;0.37;0.37;;;18.60;95.20;;;;;;4436998;32;20131;-71
2022/07/03 01:50:24;;;;;;;0.75;0.75;;;18.60;95.60;;;;;;4435774;32;20101;-71
2022/07/03 01:52:51;;;;;;;1.05;0.57;;;18.50;95.90;;;;;;4412060;32;20588;-71
2022/07/03 01:55:19;;;;;;;0.22;0.22;;;18.50;95.80;;;;;;4437542;32;20080;-71
2022/07/03 01:57:47;;;;;;;1.17;0.60;;;18.40;96.20;;;;;;4444876;32;20065;-71
2022/07/03 02:00:16;;;;;;;7.30;0.45;;;18.40;96.40;;;;;;4442269;32;20415;-71
2022/07/03 02:02:52;;;;;;;0.57;0.57;;;18.40;96.20;;;;;;4446741;32;20064;-71
2022/07/03 02:05:28;;;;;;;1.10;0.60;;;18.30;96.10;;;;;;4441317;32;20528;-71
2022/07/03 02:08:20;;;;;;;0.88;0.65;;;18.40;96.40;;;;;;4438905;32;20069;-71
2022/07/03 02:11:00;;;;;;;0.43;0.43;;;18.40;96.60;;;;;;4446533;32;20077;-71
2022/07/03 02:13:28;;;;;;;0.50;0.50;;;18.40;96.50;;;;;;4441004;32;20072;-71
2022/07/03 02:15:58;;;;;;;0.22;0.22;;;18.40;96.60;;;;;;4434422;32;20073;-71
2022/07/03 02:18:32;;;;;;;0.40;0.40;;;18.30;96.80;;;;;;4433396;32;20508;-71
2022/07/03 02:21:15;;;;;;;0.30;0.30;;;18.30;97.20;;;;;;4436814;32;20590;-71
2022/07/03 02:23:55;;;;;;;0.50;0.45;;;18.20;97.50;;;;;;4427982;32;20089;-71
2022/07/03 02:26:31;;;;;;;1.65;0.80;;;18.20;97.70;;;;;;4436994;32;20088;-71
2022/07/03 02:29:03;;;;;;;0.30;0.30;;;18.20;97.50;;;;;;4439707;32;20423;-71
2022/07/03 02:31:35;;;;;;;0.62;0.60;;;18.20;97.40;;;;;;4437118;32;20109;-71
2022/07/03 02:34:02;;;;;;;0.70;0.60;;;18.30;97.40;;;;;;4435649;32;20090;-71
2022/07/03 02:36:29;;;;;;;0.70;0.70;;;18.40;97.10;;;;;;4439994;32;20135;-71
2022/07/03 02:38:57;;;;;;;0.82;0.80;;;18.30;96.70;;;;;;4440442;32;20061;-71
2022/07/03 02:41:29;;;;;;;9.40;1.62;;;18.30;96.80;;;;;;4439858;32;20068;-71
2022/07/03 02:44:01;;;;;;;0.30;0.30;;;18.30;96.90;;;;;;4445160;32;20061;-71
2022/07/03 02:46:49;;;;;;;0.47;0.47;;;18.20;97.00;;;;;;4439915;32;20065;-71
2022/07/03 02:49:53;;;;;;;0.50;0.50;;;18.20;97.40;;;;;;4439780;32;20085;-71
2022/07/03 02:52:40;;;;;;;0.52;0.50;;;18.10;98.20;;;;;;4416316;32;20072;-71
2022/07/03 02:55:32;;;;;;;0.47;0.47;;;18.10;98.00;;;;;;4420685;32;20060;-71
2022/07/03 02:58:23;;;;;;;0.60;0.60;;;18.00;98.40;;;;;;4433377;32;20100;-71
2022/07/03 03:00:58;;;;;;;0.43;0.43;;;18.00;98.10;;;;;;4438963;32;20064;-71
2022/07/03 03:03:27;;;;;;;0.50;0.50;;;18.00;98.20;;;;;;4442495;32;20080;-71
2022/07/03 03:06:00;;;;;;;1.05;0.65;;;18.00;98.00;;;;;;4443373;32;20438;-71
2022/07/03 03:08:40;;;;;;;0.40;0.40;;;18.10;98.20;;;;;;4442507;32;20092;-71
2022/07/03 03:11:08;;;;;;;2.83;0.62;;;18.00;97.80;;;;;;4443856;32;20497;-71
2022/07/03 03:13:35;;;;;;;1.17;0.70;;;18.00;98.20;;;;;;4440125;32;20405;-71
2022/07/03 03:16:05;;;;;;;0.62;0.62;;;18.10;98.30;;;;;;4441109;32;20479;-71
2022/07/03 03:18:35;;;;;;;0.40;0.40;;;18.10;98.30;;;;;;4440658;32;20092;-71
2022/07/03 03:21:03;;;;;;;0.32;0.32;;;18.00;98.10;;;;;;4437610;32;20058;-71
2022/07/03 03:23:49;;;;;;;0.43;0.43;;;18.00;98.90;;;;;;4419994;32;20174;-71
2022/07/03 03:26:20;;;;;;;0.45;0.45;;;18.00;98.40;;;;;;4434024;32;20060;-71
2022/07/03 03:28:47;;;;;;;0.30;0.30;;;17.90;98.90;;;;;;4440995;32;20089;-71
2022/07/03 03:31:13;;;;;;;0.30;0.30;;;18.00;99.00;;;;;;4442777;32;20069;-71
2022/07/03 03:33:42;;;;;;;3.30;0.60;;;18.00;98.70;;;;;;4444578;32;20069;-71
2022/07/03 03:36:10;;;;;;;0.50;0.50;;;18.00;98.90;;;;;;4444195;32;20474;-71
2022/07/03 03:38:35;;;;;;;0.50;0.50;;;18.00;99.20;;;;;;4440466;32;20082;-71
2022/07/03 03:41:03;;;;;;;0.52;0.52;;;17.90;99.80;;;;;;4440269;32;20068;-71
2022/07/03 03:43:29;;;;;;;4.55;1.27;;;17.90;99.30;;;;;;4448809;32;20173;-71
2022/07/03 03:45:55;;;;;;;0.45;0.45;;;17.90;99.40;;;;;;4439348;32;20173;-71
2022/07/03 03:48:20;;;;;;;0.60;0.60;;;17.90;99.90;;;;;;4440969;32;20073;-71
2022/07/03 03:50:46;;;;;;;0.40;0.40;;;17.80;99.90;;;;;;4435122;32;20134;-71
2022/07/03 03:53:12;;;;;;;1.58;0.60;;;17.90;99.90;;;;;;4418028;32;20073;-71
2022/07/03 03:56:00;;;;;;;0.80;0.62;;;17.80;99.90;;;;;;4439488;32;20102;-71
2022/07/03 03:58:27;;;;;;;0.50;0.50;;;17.70;99.90;;;;;;4444791;32;20132;-71
2022/07/03 04:00:54;;;;;;;0.30;0.30;;;17.80;99.90;;;;;;4442105;32;20081;-71
2022/07/03 04:03:20;;;;;;;0.65;0.40;;;17.80;99.90;;;;;;4441770;32;20132;-71
2022/07/03 04:05:45;;;;;;;0.40;0.40;;;17.80;99.90;;;;;;4446908;32;20065;-71
2022/07/03 04:08:11;;;;;;;0.30;0.30;;;18.00;99.90;;;;;;4441387;32;20138;-71
2022/07/03 04:10:37;;;;;;;0.90;0.50;;;18.10;99.90;;;;;;4447523;32;20127;-71
2022/07/03 04:13:02;;;;;;;0.30;0.30;;;18.20;99.90;;;;;;4435698;32;20466;-71
2022/07/03 04:15:28;;;;;;;0.40;0.40;;;18.30;99.90;;;;;;4439906;32;20061;-71
2022/07/03 04:17:53;;;;;;;0.35;0.35;;;18.30;99.90;;;;;;4443944;32;20140;-71
2022/07/03 04:20:19;;;;;;;0.77;0.70;;;18.30;99.90;;;;;;4444582;32;20073;-71
2022/07/03 04:22:44;;;;;;;0.50;0.50;;;18.30;99.90;;;;;;4420876;32;20461;-71
2022/07/03 04:25:10;;;;;;;0.32;0.32;;;18.40;99.90;;;;;;4431291;32;20556;-71
2022/07/03 04:27:35;;;;;;;0.73;0.60;;;18.40;99.90;;;;;;4435093;32;20065;-71
2022/07/03 04:30:01;;;;;;;5.78;2.50;;;18.50;99.90;;;;;;4437168;32;20119;-71
2022/07/03 04:32:26;;;;;;;0.40;0.40;;;18.50;99.90;;;;;;4446850;32;20449;-71
2022/07/03 04:34:52;;;;;;;0.40;0.40;;;18.60;99.90;;;;;;4437783;32;20094;-71
2022/07/03 04:37:17;;;;;;;0.55;0.47;;;18.60;99.90;;;;;;4443618;32;20098;-71
2022/07/03 04:39:43;;;;;;;1.12;0.80;;;18.50;99.90;;;;;;4442174;32;20428;-71
2022/07/03 04:42:08;;;;;;;0.70;0.70;;;18.50;99.90;;;;;;4442442;32;20595;-72
2022/07/03 04:44:34;;;;;;;2.62;0.85;;;18.60;99.90;;;;;;4443900;32;20085;-71
2022/07/03 04:46:59;;;;;;;2.40;0.85;;;18.60;99.90;;;;;;4439002;32;21297;-71
2022/07/03 04:49:24;;;;;;;0.40;0.40;;;18.60;99.90;;;;;;4437376;32;20447;-71
2022/07/03 04:51:52;;;;;;;2.95;1.70;;;18.70;99.90;;;;;;4428639;32;20072;-71
2022/07/03 04:54:18;;;;;;;2.85;0.95;;;18.80;99.90;;;;;;4422089;32;20066;-71
2022/07/03 04:56:43;;;;;;;0.40;0.40;;;18.80;99.90;;;;;;4433222;32;20479;-71
2022/07/03 04:59:09;;;;;;;0.50;0.50;;;18.90;99.90;;;;;;4438793;32;20081;-71
2022/07/03 05:01:34;;;;;;;0.40;0.40;;;18.90;99.90;;;;;;4440908;32;20466;-71
2022/07/03 05:03:59;;;;;;;0.40;0.40;;;19.00;99.90;;;;;;4445096;32;20068;-71
2022/07/03 05:06:25;;;;;;;1.90;0.73;;;19.10;99.80;;;;;;4442292;32;20097;-71
2022/07/03 05:08:50;;;;;;;1.05;0.73;;;19.10;99.10;;;;;;4442209;32;20056;-71
2022/07/03 05:11:16;;;;;;;0.37;0.37;;;19.10;99.50;;;;;;4438245;32;20131;-71
2022/07/03 05:13:41;;;;;;;0.50;0.50;;;19.20;99.90;;;;;;4442801;32;20513;-71
2022/07/03 05:16:07;;;;;;;0.37;0.37;;;19.20;99.80;;;;;;4439109;32;20068;-71
2022/07/03 05:18:34;;;;;;;0.55;0.55;;;19.30;99.80;;;;;;4445645;32;20093;-71
2022/07/03 05:20:59;;;;;;;0.30;0.30;;;19.30;99.30;;;;;;4427378;32;20080;-71
2022/07/03 05:23:25;;;;;;;0.85;0.40;;;19.30;99.30;;;;;;4418187;32;20193;-71
2022/07/03 05:25:50;;;;;;;0.50;0.50;;;19.40;98.80;;;;;;4432106;32;20065;-71
2022/07/03 05:28:15;;;;;;;0.43;0.40;;;19.40;99.30;;;;;;4436833;32;20123;-71
2022/07/03 05:30:41;;;;;;;0.43;0.43;;;19.50;99.00;;;;;;4438872;32;20085;-71
2022/07/03 05:33:06;;;;;;;0.80;0.77;;;19.50;98.70;;;;;;4449083;32;20061;-71
2022/07/03 05:35:32;;;;;;;0.37;0.37;;;19.60;98.50;;;;;;4442027;32;20069;-71
2022/07/03 05:37:58;;;;;;;3.00;0.70;;;19.70;98.60;;;;;;4439438;32;20088;-71
2022/07/03 05:40:23;;;;;;;0.60;0.60;;;19.90;98.60;;;;;;4441049;32;20523;-71
2022/07/03 05:42:49;;;;;;;0.62;0.50;;;19.90;98.10;;;;;;4444796;32;20068;-71
2022/07/03 05:45:14;;;;;;;0.40;0.40;;;20.00;98.40;;;;;;4437237;32;20086;-71
2022/07/03 05:47:40;;;;;;;0.52;0.50;;;20.00;98.30;;;;;;4441756;32;20060;-71
2022/07/03 05:50:05;;;;;;;0.52;0.52;;;20.10;98.00;;;;;;4436890;32;20417;-71
2022/07/03 05:52:31;;;;;;;0.50;0.50;;;20.20;97.70;;;;;;4419926;32;20243;-71
2022/07/03 05:54:56;;;;;;;0.62;0.62;;;20.30;97.60;;;;;;4424956;32;20124;-71
2022/07/03 05:57:22;;;;;;;1.45;0.50;;;20.30;97.80;;;;;;4442613;32;20089;-71
2022/07/03 05:59:47;;;;;;;0.35;0.35;;;20.30;97.90;;;;;;4443598;32;20100;-71
2022/07/03 06:02:13;;;;;;;0.43;0.43;;;20.40;97.90;;;;;;4440769;32;20132;-71
2022/07/03 06:04:38;;;;;;;0.40;0.40;;;20.60;97.40;;;;;;4437733;32;20116;-71
2022/07/03 06:07:04;;;;;;;0.73;0.73;;;20.70;97.10;;;;;;4442955;32;20073;-71
2022/07/03 06:09:29;;;;;;;0.37;0.37;;;20.90;96.50;;;;;;4438932;32;20121;-71
2022/07/03 06:11:55;;;;;;;0.30;0.30;;;21.00;96.40;;;;;;4441950;32;20104;-71
2022/07/03 06:14:20;;;;;;;0.70;0.70;;;21.20;96.70;;;;;;4438354;32;20172;-71
2022/07/03 06:16:46;;;;;;;0.70;0.70;;;21.30;96.60;;;;;;4446105;32;20064;-71
2022/07/03 06:19:11;;;;;;;0.35;0.35;;;21.40;95.80;;;;;;4440981;32;20069;-71
2022/07/03 06:21:37;;;;;;;1.75;1.05;;;21.40;95.40;;;;;;4434870;32;20870;-71
2022/07/03 06:24:02;;;;;;;0.40;0.40;;;21.50;95.10;;;;;;4425752;32;20128;-71
2022/07/03 06:26:29;;;;;;;0.47;0.47;;;21.60;94.80;;;;;;4435837;32;20437;-71
2022/07/03 06:28:54;;;;;;;0.25;0.25;;;21.60;94.70;;;;;;4437927;32;20557;-71
2022/07/03 06:31:20;;;;;;;0.40;0.40;;;21.70;94.50;;;;;;4443816;32;20065;-71
2022/07/03 06:33:45;;;;;;;0.52;0.52;;;21.70;94.70;;;;;;4443404;32;20073;-71
2022/07/03 06:36:10;;;;;;;0.30;0.30;;;21.80;94.60;;;;;;4441084;32;20450;-71
2022/07/03 06:38:36;;;;;;;0.50;0.50;;;22.00;94.70;;;;;;4438972;32;20081;-71
2022/07/03 06:41:01;;;;;;;0.30;0.30;;;22.10;94.10;;;;;;4440717;32;20120;-71
2022/07/03 06:43:27;;;;;;;0.73;0.73;;;22.20;93.70;;;;;;4438329;32;20414;-71
2022/07/03 06:45:52;;;;;;;0.32;0.32;;;22.30;94.00;;;;;;4438719;32;20069;-71
2022/07/03 06:48:18;;;;;;;0.40;0.40;;;22.40;93.30;;;;;;4443295;32;20168;-71
2022/07/03 06:50:45;;;;;;;0.40;0.40;;;22.40;92.90;;;;;;4441568;32;20140;-71
2022/07/03 06:53:10;;;;;;;0.30;0.30;;;22.40;93.20;;;;;;4417695;32;20069;-71
2022/07/03 06:55:36;;;;;;;0.40;0.40;;;22.60;92.80;;;;;;4432840;32;20057;-71
2022/07/03 06:58:01;;;;;;;0.52;0.37;;;22.60;92.50;;;;;;4443658;32;20107;-71
2022/07/03 07:00:27;;;;;;;0.40;0.40;;;22.60;92.70;;;;;;4438555;32;20073;-71
2022/07/03 07:02:52;;;;;;;0.62;0.57;;;22.70;93.00;;;;;;4439372;32;20442;-71
2022/07/03 07:05:18;;;;;;;0.82;0.82;;;22.80;92.90;;;;;;4439879;32;20060;-71
2022/07/03 07:07:43;;;;;;;0.40;0.40;;;22.90;92.70;;;;;;4437278;32;20104;-71
2022/07/03 07:10:09;;;;;;;0.30;0.30;;;23.00;92.20;;;;;;4438201;32;20081;-71
2022/07/03 07:12:35;;;;;;;3.55;0.60;;;23.10;92.20;;;;;;4442261;32;20644;-71
2022/07/03 07:15:00;;;;;;;0.40;0.40;;;23.20;92.50;;;;;;4438320;32;20288;-71
2022/07/03 07:17:26;;;;;;;0.40;0.40;;;23.20;92.00;;;;;;4437987;32;20094;-71
2022/07/03 07:19:51;;;;;;;0.25;0.25;;;23.30;92.00;;;;;;4438576;32;20061;-71
2022/07/03 07:22:17;;;;;;;0.30;0.30;;;23.40;91.60;;;;;;4425738;32;20406;-71
2022/07/03 07:24:42;;;;;;;0.40;0.40;;;23.50;91.50;;;;;;4423617;32;20072;-71
2022/07/03 07:27:08;;;;;;;0.57;0.57;;;23.50;91.30;;;;;;4441858;32;20120;-71
2022/07/03 07:29:33;;;;;;;0.20;0.20;;;23.60;90.90;;;;;;4438299;32;20094;-71
2022/07/03 07:31:59;;;;;;;0.35;0.35;;;23.70;90.70;;;;;;4441050;32;20090;-71
2022/07/03 07:34:24;;;;;;;0.35;0.35;;;23.80;90.40;;;;;;4441054;32;20069;-72
2022/07/03 07:36:50;;;;;;;3.17;0.50;;;23.80;89.90;;;;;;4442180;32;20121;-71
2022/07/03 07:39:15;;;;;;;0.28;0.28;;;23.80;90.30;;;;;;4441450;32;20073;-71
2022/07/03 07:41:41;;;;;;;0.80;0.55;;;24.00;89.90;;;;;;4437797;32;20072;-72
2022/07/03 07:44:06;;;;;;;0.30;0.30;;;24.00;89.20;;;;;;4445659;32;20064;-71
2022/07/03 07:46:32;;;;;;;0.32;0.32;;;24.20;89.70;;;;;;4440997;32;20441;-71
2022/07/03 07:48:57;;;;;;;0.30;0.30;;;24.30;89.80;;;;;;4441562;32;20077;-71
2022/07/03 07:51:23;;;;;;;0.30;0.30;;;24.40;88.90;;;;;;4433009;32;20445;-71
2022/07/03 07:53:50;;;;;;;0.32;0.32;;;24.60;88.40;;;;;;4417344;32;20064;-71
2022/07/03 07:56:15;;;;;;;0.50;0.50;;;24.50;87.70;;;;;;4440671;32;20068;-71
2022/07/03 07:58:41;;;;;;;0.40;0.40;;;24.60;88.20;;;;;;4440969;32;20525;-71
2022/07/03 08:05:47;;;;;;;1.27;0.50;;;24.70;87.10;;;;;;4434649;32;20119;-72
2022/07/03 08:06:37;;;;;;;0.32;0.32;;;24.80;87.10;;;;;;4436036;32;20548;-71
2022/07/03 08:09:03;;;;;;;0.37;0.35;;;25.10;86.40;;;;;;4437198;32;20151;-71
2022/07/03 08:11:28;;;;;;;0.30;0.30;;;25.20;85.60;;;;;;4438833;32;20105;-71
2022/07/03 08:13:54;;;;;;;0.20;0.20;;;25.30;86.20;;;;;;4441584;32;20061;-71
2022/07/03 08:16:19;;;;;;;0.30;0.30;;;25.40;85.80;;;;;;4441342;32;20089;-72
2022/07/03 08:18:45;;;;;;;0.32;0.25;;;25.20;84.40;;;;;;4439966;32;20543;-71
2022/07/03 08:21:10;;;;;;;0.30;0.30;;;25.00;84.20;;;;;;4433065;32;20104;-71
2022/07/03 08:23:36;;;;;;;0.28;0.28;;;25.00;84.80;;;;;;4422134;32;20085;-71
2022/07/03 08:26:01;;;;;;;0.20;0.20;;;25.20;85.60;;;;;;4441234;32;20064;-71
2022/07/03 08:28:27;;;;;;;0.17;0.17;;;25.30;85.00;;;;;;4442917;32;20070;-71
2022/07/03 08:30:53;;;;;;;0.20;0.20;;;25.40;84.80;;;;;;4443145;32;20127;-72
2022/07/03 08:33:18;;;;;;;1.10;0.40;;;25.50;84.60;;;;;;4443399;32;20509;-72
2022/07/03 08:35:44;;;;;;;0.30;0.30;;;25.70;85.20;;;;;;4436400;32;20085;-71
2022/07/03 08:38:09;;;;;;;0.52;0.45;;;25.90;82.50;;;;;;4439932;32;20069;-71
2022/07/03 08:40:35;;;;;;;0.30;0.30;;;26.10;82.10;;;;;;4434383;32;20065;-71
2022/07/03 08:43:01;;;;;;;0.28;0.28;;;26.10;80.50;;;;;;4438936;32;20119;-71
2022/07/03 08:45:26;;;;;;;0.30;0.30;;;26.00;79.80;;;;;;4439809;32;20134;-71
2022/07/03 08:47:54;;;;;;;0.20;0.20;;;25.80;80.50;;;;;;4443687;32;20626;-71
2022/07/03 08:50:20;;;;;;;0.20;0.20;;;25.60;80.50;;;;;;4440044;32;21744;-71
2022/07/03 08:52:47;;;;;;;0.68;0.47;;;25.80;81.80;;;;;;4425263;32;20061;-71
2022/07/03 08:55:14;;;;;;;0.25;0.22;;;25.80;80.80;;;;;;4426555;32;20069;-71
2022/07/03 08:57:42;;;;;;;0.20;0.20;;;25.90;80.70;;;;;;4442502;32;20073;-70
2022/07/03 09:00:10;;;;;;;4.28;0.62;;;25.80;79.50;;;;;;4443648;32;20089;-71
2022/07/03 09:02:38;;;;;;;0.20;0.20;;;25.80;79.70;;;;;;4448150;32;20409;-71
2022/07/03 09:05:04;;;;;;;0.32;0.32;;;25.90;80.20;;;;;;4438236;32;20068;-70
2022/07/03 09:07:35;;;;;;;0.30;0.30;;;25.70;80.70;;;;;;4445465;32;20101;-71
2022/07/03 09:10:06;;;;;;;0.40;0.40;;;25.80;80.80;;;;;;4435847;32;20165;-71
2022/07/03 09:12:31;;;;;;;;;;;25.90;82.40;;;;;;4448413;32;20096;-71
2022/07/03 09:14:58;;;;;;;0.30;0.30;;;26.20;79.90;;;;;;4438924;32;19949;-71
2022/07/03 09:17:23;;;;;;;0.32;0.32;;;26.30;79.30;;;;;;4441235;32;20088;-71
2022/07/03 09:19:49;;;;;;;0.20;0.20;;;26.30;79.50;;;;;;4441977;32;20517;-71
2022/07/03 09:22:24;;;;;;;0.20;0.20;;;26.50;80.20;;;;;;4419556;32;20111;-71
2022/07/03 09:24:51;;;;;;;0.20;0.20;;;26.70;78.80;;;;;;4419775;32;20462;-71
2022/07/03 09:27:20;;;;;;;1.85;0.68;;;26.70;78.30;;;;;;4437330;32;20057;-71
2022/07/03 09:29:56;;;;;;;0.20;0.20;;;26.80;78.40;;;;;;4443111;32;20060;-71
2022/07/03 09:32:23;;;;;;;0.30;0.30;;;26.70;77.80;;;;;;4443754;32;20076;-71
2022/07/03 09:34:49;;;;;;;0.52;0.52;;;26.70;77.30;;;;;;4439623;32;20420;-73
2022/07/03 09:37:24;;;;;;;0.37;0.37;;;26.50;78.70;;;;;;4442781;32;20116;-71
2022/07/03 09:39:57;;;;;;;0.10;0.10;;;26.60;78.40;;;;;;4435831;32;20139;-71
2022/07/03 09:42:22;;;;;;;0.20;0.20;;;26.80;79.70;;;;;;4440805;32;20065;-71
2022/07/03 09:44:47;;;;;;;0.20;0.20;;;27.10;77.80;;;;;;4440560;32;20418;-71
2022/07/03 09:47:15;;;;;;;0.57;0.57;;;27.00;76.50;;;;;;4445104;32;20073;-71
2022/07/03 09:49:47;;;;;;;0.30;0.30;;;27.30;75.10;;;;;;4442833;32;20104;-71
2022/07/03 09:52:37;;;;;;;0.20;0.20;;;27.40;75.50;;;;;;4421309;32;20097;-71
2022/07/03 09:55:14;;;;;;;1.17;0.40;;;27.40;77.00;;;;;;4421255;32;20081;-71
2022/07/03 09:57:44;;;;;;;4.28;0.30;;;27.40;73.20;;;;;;4431734;32;20414;-71
2022/07/03 10:00:22;;;;;;;0.60;0.60;;;27.20;73.40;;;;;;4438015;32;20084;-71
2022/07/03 10:03:06;;;;;;;0.30;0.30;;;27.40;74.20;;;;;;4432069;32;20164;-71
2022/07/03 10:05:33;;;;;;;0.43;0.20;;;27.50;74.70;;;;;;4437800;32;20101;-71
2022/07/03 10:08:02;;;;;;;0.20;0.20;;;27.50;72.80;;;;;;4438047;32;20143;-71
2022/07/03 10:10:30;;;;;;;1.90;0.35;;;27.70;73.10;;;;;;4440715;32;20073;-72
2022/07/03 10:12:56;;;;;;;0.30;0.30;;;27.90;72.40;;;;;;4439136;32;20084;-72
2022/07/03 10:15:23;;;;;;;0.20;0.20;;;28.10;71.50;;;;;;4439732;32;20081;-71
2022/07/03 10:17:51;;;;;;;0.28;0.28;;;28.30;72.90;;;;;;4437873;32;20163;-71
2022/07/03 10:20:26;;;;;;;0.10;0.10;;;28.50;71.00;;;;;;4440402;32;20165;-72
2022/07/03 10:22:52;;;;;;;0.10;0.10;;;28.30;71.50;;;;;;4412748;32;20422;-71
2022/07/03 10:25:18;;;;;;;0.20;0.20;;;28.30;71.40;;;;;;4428436;32;20249;-71
2022/07/03 10:27:46;;;;;;;3.30;1.10;;;28.30;71.00;;;;;;4438858;32;20612;-71
2022/07/03 10:30:15;;;;;;;0.47;0.22;;;28.50;71.90;;;;;;4440765;32;20053;-71
2022/07/03 10:32:44;;;;;;;0.20;0.20;;;28.70;71.60;;;;;;4445422;32;20596;-71
2022/07/03 10:35:10;;;;;;;0.17;0.17;;;28.80;69.80;;;;;;4436998;32;20088;-72
2022/07/03 10:37:45;;;;;;;0.50;0.50;;;28.70;71.50;;;;;;4442017;32;20092;-71
2022/07/03 10:44:54;;;;;;;0.47;0.30;;;29.60;70.30;;;;;;4429848;32;20533;-72
2022/07/03 10:46:11;;;;;;;0.20;0.20;;;29.60;69.80;;;;;;4432557;32;20146;-71
2022/07/03 10:48:50;;;;;;;;;;;29.70;68.60;;;;;;4441054;32;20081;-71
2022/07/03 10:51:15;;;;;;;0.80;0.47;;;29.60;69.80;;;;;;4422010;32;20210;-71
2022/07/03 10:53:41;;;;;;;0.35;0.30;;;29.60;68.80;;;;;;4422759;32;20077;-71
2022/07/03 10:56:06;;;;;;;0.28;0.28;;;30.10;68.60;;;;;;4438679;32;20076;-72
2022/07/03 10:58:32;;;;;;;1.87;0.65;;;30.20;66.90;;;;;;4439589;32;20093;-72
2022/07/03 11:00:58;;;;;;;0.20;0.17;;;30.20;68.10;;;;;;4439291;32;20084;-72
2022/07/03 11:03:51;;;;;;;0.10;0.10;;;30.80;68.90;;;;;;4438809;32;20538;-72
2022/07/03 11:06:16;;;;;;;0.20;0.20;;;31.30;69.60;;;;;;4437225;32;20058;-72
2022/07/03 11:09:03;;;;;;;2.90;0.52;;;31.40;64.80;;;;;;4434271;32;20072;-72
2022/07/03 11:11:57;;;;;;;0.05;0.00;;;31.40;65.40;;;;;;4430610;32;20134;-71
2022/07/03 11:14:25;;;;;;;0.22;0.22;;;31.20;65.30;;;;;;4434370;32;20112;-71
2022/07/03 11:17:19;;;;;;;0.08;0.08;;;30.90;64.40;;;;;;4440052;32;20105;-71
2022/07/03 11:20:23;;;;;;;0.15;0.10;;;30.90;67.90;;;;;;4440463;32;20053;-72
2022/07/03 11:22:43;;;;;;;0.93;0.57;;;31.50;64.20;;;;;;4412982;32;20073;-71
2022/07/03 11:25:09;;;;;;;0.10;0.10;;;31.70;65.70;;;;;;4431229;32;20081;-71
2022/07/03 11:27:35;;;;;;;0.20;0.20;;;32.10;62.70;;;;;;4425247;32;20418;-71
2022/07/03 11:30:01;;;;;;;0.25;0.25;;;31.20;64.00;;;;;;4432633;32;20507;-71
2022/07/03 11:32:51;;;;;;;0.10;0.10;;;31.20;65.20;;;;;;4444574;32;20484;-72
2022/07/03 11:35:46;;;;;;;0.10;0.10;;;30.80;64.30;;;;;;4439220;32;20081;-72
2022/07/03 11:38:14;;;;;;;0.15;0.10;;;30.40;66.10;;;;;;4439048;32;20457;-72
2022/07/03 11:40:44;;;;;;;0.03;0.03;;;30.60;67.80;;;;;;4446986;32;20064;-72
2022/07/03 11:43:11;;;;;;;0.20;0.20;;;31.30;64.30;;;;;;4442770;32;20065;-71
2022/07/03 11:45:40;;;;;;;0.10;0.10;;;31.80;63.60;;;;;;4436020;32;20198;-72
2022/07/03 11:48:08;;;;;;;0.10;0.10;;;31.70;63.30;;;;;;4444999;32;20060;-72
2022/07/03 11:50:39;;;;;;;0.40;0.30;;;31.80;61.80;;;;;;4444065;32;20069;-73
2022/07/03 11:53:22;;;;;;;0.08;0.08;;;31.70;63.60;;;;;;4416982;32;20816;-72
2022/07/03 11:55:49;;;;;;;0.10;0.10;;;31.30;64.10;;;;;;4427172;32;20093;-72
2022/07/03 11:58:14;;;;;;;0.10;0.10;;;31.40;62.50;;;;;;4447566;32;20505;-72
2022/07/03 12:00:40;;;;;;;0.55;0.40;;;31.90;62.40;;;;;;4440275;32;20061;-72
2022/07/03 12:03:06;;;;;;;0.00;0.00;;;32.80;61.30;;;;;;4443699;32;20612;-72
2022/07/03 12:05:32;;;;;;;0.15;0.15;;;33.10;60.40;;;;;;4441225;32;20077;-72
2022/07/03 12:08:05;;;;;;;0.20;0.20;;;33.80;59.40;;;;;;4443937;32;20116;-73
2022/07/03 12:10:39;;;;;;;0.40;0.40;;;33.60;58.60;;;;;;4439857;32;20089;-72
2022/07/03 12:13:18;;;;;;;1.15;0.40;;;33.50;58.50;;;;;;4442302;32;20076;-72
2022/07/03 12:15:44;;;;;;;0.10;0.10;;;33.00;60.70;;;;;;4443981;32;20092;-72
2022/07/03 12:18:10;;;;;;;0.10;0.10;;;33.60;59.90;;;;;;4439839;32;20069;-72
2022/07/03 12:20:35;;;;;;;0.37;0.32;;;33.90;58.70;;;;;;4435592;32;20093;-72
2022/07/03 12:23:01;;;;;;;0.08;0.08;;;34.60;57.60;;;;;;4416421;32;20136;-72
2022/07/03 12:25:29;;;;;;;0.10;0.10;;;34.90;56.20;;;;;;4431334;32;20081;-73
2022/07/03 12:27:55;;;;;;;0.10;0.10;;;34.50;56.50;;;;;;4438090;32;20093;-72
2022/07/03 12:30:24;;;;;;;0.10;0.10;;;34.30;57.20;;;;;;4434075;32;20084;-72
2022/07/03 12:32:50;;;;;;;0.20;0.20;;;33.40;58.50;;;;;;4438925;32;20097;-72
2022/07/03 12:35:24;;;;;;;0.10;0.10;;;32.90;58.50;;;;;;4439885;32;20069;-72
2022/07/03 12:37:50;;;;;;;0.10;0.10;;;33.50;56.50;;;;;;4439694;32;20049;-72
2022/07/03 12:40:15;;;;;;;0.20;0.20;;;34.10;55.50;;;;;;4443091;32;20455;-72
2022/07/03 12:42:45;;;;;;;0.10;0.10;;;34.60;55.70;;;;;;4446898;32;20060;-72
2022/07/03 12:45:11;;;;;;;;;;;34.90;55.30;;;;;;4437699;32;20407;-72
2022/07/03 12:47:37;;;;;;;0.20;0.20;;;35.10;55.50;;;;;;4437582;32;19941;-72
2022/07/03 12:50:06;;;;;;;0.20;0.20;;;35.40;54.60;;;;;;4444438;32;20418;-72
2022/07/03 12:52:33;;;;;;;0.20;0.20;;;35.80;54.10;;;;;;4416043;32;20540;-72
2022/07/03 12:55:00;;;;;;;0.65;0.40;;;36.60;53.30;;;;;;4428718;32;20089;-73
2022/07/03 12:59:26;;;;;;;0.30;0.30;;;36.30;54.70;;;;;;4441087;32;20073;-72
2022/07/03 13:00:16;;;;;;;0.10;0.10;;;35.90;54.30;;;;;;4435121;32;20109;-72
2022/07/03 13:02:42;;;;;;;0.10;0.10;;;35.20;53.50;;;;;;4434217;32;20088;-72
2022/07/03 13:05:25;;;;;;;0.35;0.28;;;34.50;53.40;;;;;;4444240;32;20065;-72